sensor_id;sensor_type;location;lat;lon;timestamp;temperature;humidity
17956;DHT22;27666;51.498;11.966;2023-02-02T00:00:38;3.70;99.90
17956;DHT22;27666;51.498;11.966;2023-02-02T00:03:27;3.70;99.90
17956;DHT22;27666;51.498;11.966;2023-02-02T00:06:14;3.70;99.90
17956;DHT22;27666;51.498;11.966;2023-02-02T00:09:01;3.70;99.90
17956;DHT22;27666;51.498;11.966;2023-02-02T00:11:49;3.80;99.90
17956;DHT22;27666;51.498;11.966;2023-02-02T00:14:35;3.90;99.90
17956;DHT22;27666;51.498;11.966;2023-02-02T00:17:22;3.90;99.90
17956;DHT22;27666;51.498;11.966;2023-02-02T00:20:10;3.90;99.90
17956;DHT22;27666;51.498;11.966;2023-02-02T00:22:57;3.80;99.90
17956;DHT22;27666;51.498;11.966;2023-02-02T00:25:43;3.70;99.90
17956;DHT22;27666;51.498;11.966;2023-02-02T00:28:30;3.80;99.90
17956;DHT22;27666;51.498;11.966;2023-02-02T00:31:17;3.80;99.90
17956;DHT22;27666;51.498;11.966;2023-02-02T00:34:03;3.80;99.90
17956;DHT22;27666;51.498;11.966;2023-02-02T00:36:51;3.80;99.90
17956;DHT22;27666;51.498;11.966;2023-02-02T00:39:38;3.80;99.90
17956;DHT22;27666;51.498;11.966;2023-02-02T00:42:24;3.80;99.90
17956;DHT22;27666;51.498;11.966;2023-02-02T00:45:12;3.70;99.90
17956;DHT22;27666;51.498;11.966;2023-02-02T00:48:01;3.70;99.90
17956;DHT22;27666;51.498;11.966;2023-02-02T00:50:47;3.70;99.90
17956;DHT22;27666;51.498;11.966;2023-02-02T00:53:35;3.80;99.90
17956;DHT22;27666;51.498;11.966;2023-02-02T00:56:22;3.90;99.90
17956;DHT22;27666;51.498;11.966;2023-02-02T00:59:09;3.80;99.90
17956;DHT22;27666;51.498;11.966;2023-02-02T01:01:56;3.80;99.90
17956;DHT22;27666;51.498;11.966;2023-02-02T01:04:42;3.90;99.90
17956;DHT22;27666;51.498;11.966;2023-02-02T01:07:29;3.90;99.90
17956;DHT22;27666;51.498;11.966;2023-02-02T01:10:17;4.00;99.90
17956;DHT22;27666;51.498;11.966;2023-02-02T01:13:04;4.00;99.90
17956;DHT22;27666;51.498;11.966;2023-02-02T01:15:54;4.00;99.90
17956;DHT22;27666;51.498;11.966;2023-02-02T01:18:41;4.00;99.90
17956;DHT22;27666;51.498;11.966;2023-02-02T01:21:27;4.10;99.90
17956;DHT22;27666;51.498;11.966;2023-02-02T01:24:14;4.10;99.90
17956;DHT22;27666;51.498;11.966;2023-02-02T01:27:02;4.10;99.90
17956;DHT22;27666;51.498;11.966;2023-02-02T01:29:48;4.00;99.90
17956;DHT22;27666;51.498;11.966;2023-02-02T01:32:34;4.00;99.90
17956;DHT22;27666;51.498;11.966;2023-02-02T01:35:21;4.00;99.90
17956;DHT22;27666;51.498;11.966;2023-02-02T01:38:08;3.90;99.90
17956;DHT22;27666;51.498;11.966;2023-02-02T01:40:56;3.90;99.90
17956;DHT22;27666;51.498;11.966;2023-02-02T01:43:53;3.90;99.90
17956;DHT22;27666;51.498;11.966;2023-02-02T01:46:40;3.90;99.90
17956;DHT22;27666;51.498;11.966;2023-02-02T01:49:26;3.80;99.90
17956;DHT22;27666;51.498;11.966;2023-02-02T01:52:14;3.80;99.90
17956;DHT22;27666;51.498;11.966;2023-02-02T01:55:03;3.90;99.90
17956;DHT22;27666;51.498;11.966;2023-02-02T01:57:55;3.90;99.90
17956;DHT22;27666;51.498;11.966;2023-02-02T02:00:44;3.80;99.90
17956;DHT22;27666;51.498;11.966;2023-02-02T02:03:32;3.80;99.90
17956;DHT22;27666;51.498;11.966;2023-02-02T02:06:21;3.70;99.90
17956;DHT22;27666;51.498;11.966;2023-02-02T02:09:10;3.80;99.90
17956;DHT22;27666;51.498;11.966;2023-02-02T02:11:57;3.80;99.90
17956;DHT22;27666;51.498;11.966;2023-02-02T02:14:45;3.90;99.90
17956;DHT22;27666;51.498;11.966;2023-02-02T02:17:59;3.80;99.90
17956;DHT22;27666;51.498;11.966;2023-02-02T02:21:18;3.80;99.90
17956;DHT22;27666;51.498;11.966;2023-02-02T02:25:02;3.80;99.90
17956;DHT22;27666;51.498;11.966;2023-02-02T02:28:27;3.70;99.90
17956;DHT22;27666;51.498;11.966;2023-02-02T02:31:48;3.80;99.90
17956;DHT22;27666;51.498;11.966;2023-02-02T02:34:50;3.90;99.90
17956;DHT22;27666;51.498;11.966;2023-02-02T02:37:45;4.00;99.90
17956;DHT22;27666;51.498;11.966;2023-02-02T02:40:36;4.00;99.90
17956;DHT22;27666;51.498;11.966;2023-02-02T02:43:28;3.90;99.90
17956;DHT22;27666;51.498;11.966;2023-02-02T02:46:17;3.80;99.90
17956;DHT22;27666;51.498;11.966;2023-02-02T02:49:07;3.80;99.90
17956;DHT22;27666;51.498;11.966;2023-02-02T02:51:55;3.70;99.90
17956;DHT22;27666;51.498;11.966;2023-02-02T02:54:44;3.70;99.90
17956;DHT22;27666;51.498;11.966;2023-02-02T02:57:52;3.70;99.90
17956;DHT22;27666;51.498;11.966;2023-02-02T03:00:54;3.80;99.90
17956;DHT22;27666;51.498;11.966;2023-02-02T03:03:52;4.10;99.90
17956;DHT22;27666;51.498;11.966;2023-02-02T03:06:47;4.30;99.90
17956;DHT22;27666;51.498;11.966;2023-02-02T03:09:38;4.50;99.90
17956;DHT22;27666;51.498;11.966;2023-02-02T03:12:27;4.60;99.90
17956;DHT22;27666;51.498;11.966;2023-02-02T03:15:14;4.60;99.90
17956;DHT22;27666;51.498;11.966;2023-02-02T03:18:01;4.70;99.90
17956;DHT22;27666;51.498;11.966;2023-02-02T03:20:48;4.90;99.90
17956;DHT22;27666;51.498;11.966;2023-02-02T03:23:35;4.80;99.90
17956;DHT22;27666;51.498;11.966;2023-02-02T03:26:22;4.80;99.90
17956;DHT22;27666;51.498;11.966;2023-02-02T03:29:09;4.90;99.90
17956;DHT22;27666;51.498;11.966;2023-02-02T03:31:56;4.80;99.90
17956;DHT22;27666;51.498;11.966;2023-02-02T03:34:42;4.80;99.90
17956;DHT22;27666;51.498;11.966;2023-02-02T03:37:28;4.80;99.90
17956;DHT22;27666;51.498;11.966;2023-02-02T03:40:17;4.80;99.90
17956;DHT22;27666;51.498;11.966;2023-02-02T03:43:04;4.80;99.90
17956;DHT22;27666;51.498;11.966;2023-02-02T03:45:55;4.70;99.90
17956;DHT22;27666;51.498;11.966;2023-02-02T03:48:41;4.70;99.90
17956;DHT22;27666;51.498;11.966;2023-02-02T03:51:28;4.70;99.90
17956;DHT22;27666;51.498;11.966;2023-02-02T03:54:14;4.70;99.90
17956;DHT22;27666;51.498;11.966;2023-02-02T03:57:02;4.70;99.90
17956;DHT22;27666;51.498;11.966;2023-02-02T03:59:48;4.70;99.90
17956;DHT22;27666;51.498;11.966;2023-02-02T04:02:34;4.60;99.90
17956;DHT22;27666;51.498;11.966;2023-02-02T04:05:21;4.70;99.90
17956;DHT22;27666;51.498;11.966;2023-02-02T04:08:08;4.70;99.90
17956;DHT22;27666;51.498;11.966;2023-02-02T04:10:54;4.70;99.90
17956;DHT22;27666;51.498;11.966;2023-02-02T04:13:42;4.70;99.90
17956;DHT22;27666;51.498;11.966;2023-02-02T04:16:28;4.70;99.90
17956;DHT22;27666;51.498;11.966;2023-02-02T04:19:19;4.80;99.90
17956;DHT22;27666;51.498;11.966;2023-02-02T04:22:05;4.60;99.90
17956;DHT22;27666;51.498;11.966;2023-02-02T04:24:52;4.80;99.90
17956;DHT22;27666;51.498;11.966;2023-02-02T04:27:39;4.90;99.90
17956;DHT22;27666;51.498;11.966;2023-02-02T04:30:27;4.90;99.90
17956;DHT22;27666;51.498;11.966;2023-02-02T04:33:13;4.90;99.90
17956;DHT22;27666;51.498;11.966;2023-02-02T04:35:59;5.00;99.90
17956;DHT22;27666;51.498;11.966;2023-02-02T04:38:48;5.00;99.90
17956;DHT22;27666;51.498;11.966;2023-02-02T04:41:34;4.90;99.90
17956;DHT22;27666;51.498;11.966;2023-02-02T04:44:21;4.90;99.90
17956;DHT22;27666;51.498;11.966;2023-02-02T04:47:09;4.80;99.90
17956;DHT22;27666;51.498;11.966;2023-02-02T04:49:55;4.80;99.90
17956;DHT22;27666;51.498;11.966;2023-02-02T04:52:41;4.70;99.90
17956;DHT22;27666;51.498;11.966;2023-02-02T04:55:28;4.70;99.90
17956;DHT22;27666;51.498;11.966;2023-02-02T04:58:14;4.70;99.90
17956;DHT22;27666;51.498;11.966;2023-02-02T05:01:02;4.60;99.90
17956;DHT22;27666;51.498;11.966;2023-02-02T05:03:55;4.70;99.90
17956;DHT22;27666;51.498;11.966;2023-02-02T05:06:41;4.70;99.90
17956;DHT22;27666;51.498;11.966;2023-02-02T05:09:28;4.60;99.90
17956;DHT22;27666;51.498;11.966;2023-02-02T05:12:14;4.80;99.90
17956;DHT22;27666;51.498;11.966;2023-02-02T05:15:01;4.70;99.90
17956;DHT22;27666;51.498;11.966;2023-02-02T05:17:49;4.80;99.90
17956;DHT22;27666;51.498;11.966;2023-02-02T05:20:37;4.80;99.90
17956;DHT22;27666;51.498;11.966;2023-02-02T05:23:23;4.70;99.90
17956;DHT22;27666;51.498;11.966;2023-02-02T05:26:12;4.70;99.90
17956;DHT22;27666;51.498;11.966;2023-02-02T05:29:00;4.90;99.90
17956;DHT22;27666;51.498;11.966;2023-02-02T05:31:47;4.90;99.90
17956;DHT22;27666;51.498;11.966;2023-02-02T05:34:33;4.80;99.90
17956;DHT22;27666;51.498;11.966;2023-02-02T05:37:21;4.90;99.90
17956;DHT22;27666;51.498;11.966;2023-02-02T05:40:09;4.90;99.90
17956;DHT22;27666;51.498;11.966;2023-02-02T05:42:55;4.90;99.90
17956;DHT22;27666;51.498;11.966;2023-02-02T05:45:42;5.00;99.90
17956;DHT22;27666;51.498;11.966;2023-02-02T05:48:28;5.00;99.90
17956;DHT22;27666;51.498;11.966;2023-02-02T05:51:15;5.00;99.90
17956;DHT22;27666;51.498;11.966;2023-02-02T05:54:05;5.00;99.90
17956;DHT22;27666;51.498;11.966;2023-02-02T05:56:52;5.00;99.90
17956;DHT22;27666;51.498;11.966;2023-02-02T05:59:40;5.00;99.90
17956;DHT22;27666;51.498;11.966;2023-02-02T06:02:26;5.00;99.90
17956;DHT22;27666;51.498;11.966;2023-02-02T06:05:13;5.00;99.90
17956;DHT22;27666;51.498;11.966;2023-02-02T06:07:59;4.80;99.90
17956;DHT22;27666;51.498;11.966;2023-02-02T06:10:47;5.00;99.90
17956;DHT22;27666;51.498;11.966;2023-02-02T06:13:34;5.00;99.90
17956;DHT22;27666;51.498;11.966;2023-02-02T06:16:20;5.00;99.90
17956;DHT22;27666;51.498;11.966;2023-02-02T06:19:07;5.00;99.90
17956;DHT22;27666;51.498;11.966;2023-02-02T06:21:53;4.90;99.90
17956;DHT22;27666;51.498;11.966;2023-02-02T06:24:40;4.90;99.90
17956;DHT22;27666;51.498;11.966;2023-02-02T06:27:27;4.90;99.90
17956;DHT22;27666;51.498;11.966;2023-02-02T06:30:15;5.00;99.90
17956;DHT22;27666;51.498;11.966;2023-02-02T06:33:01;4.90;99.90
17956;DHT22;27666;51.498;11.966;2023-02-02T06:35:47;4.90;99.90
17956;DHT22;27666;51.498;11.966;2023-02-02T06:38:34;5.00;99.90
17956;DHT22;27666;51.498;11.966;2023-02-02T06:41:20;5.00;99.90
17956;DHT22;27666;51.498;11.966;2023-02-02T06:44:09;5.00;99.90
17956;DHT22;27666;51.498;11.966;2023-02-02T06:46:55;4.90;99.90
17956;DHT22;27666;51.498;11.966;2023-02-02T06:49:41;5.00;99.90
17956;DHT22;27666;51.498;11.966;2023-02-02T06:52:28;5.10;99.90
17956;DHT22;27666;51.498;11.966;2023-02-02T06:55:14;5.00;99.90
17956;DHT22;27666;51.498;11.966;2023-02-02T06:58:01;5.00;99.90
17956;DHT22;27666;51.498;11.966;2023-02-02T07:00:49;4.90;99.90
17956;DHT22;27666;51.498;11.966;2023-02-02T07:03:36;5.10;99.90
17956;DHT22;27666;51.498;11.966;2023-02-02T07:06:24;5.20;99.90
17956;DHT22;27666;51.498;11.966;2023-02-02T07:09:11;5.10;99.90
17956;DHT22;27666;51.498;11.966;2023-02-02T07:11:58;5.10;99.90
17956;DHT22;27666;51.498;11.966;2023-02-02T07:14:44;5.20;99.90
17956;DHT22;27666;51.498;11.966;2023-02-02T07:17:32;5.20;99.90
17956;DHT22;27666;51.498;11.966;2023-02-02T07:20:19;5.30;99.90
17956;DHT22;27666;51.498;11.966;2023-02-02T07:23:05;5.30;99.90
17956;DHT22;27666;51.498;11.966;2023-02-02T07:25:59;5.30;99.90
17956;DHT22;27666;51.498;11.966;2023-02-02T07:28:46;5.40;99.90
17956;DHT22;27666;51.498;11.966;2023-02-02T07:31:33;5.30;99.90
17956;DHT22;27666;51.498;11.966;2023-02-02T07:34:22;5.30;99.90
17956;DHT22;27666;51.498;11.966;2023-02-02T07:37:09;5.40;99.90
17956;DHT22;27666;51.498;11.966;2023-02-02T07:39:55;5.40;99.90
17956;DHT22;27666;51.498;11.966;2023-02-02T07:42:45;5.40;99.90
17956;DHT22;27666;51.498;11.966;2023-02-02T07:45:31;5.40;99.90
17956;DHT22;27666;51.498;11.966;2023-02-02T07:48:17;5.50;99.90
17956;DHT22;27666;51.498;11.966;2023-02-02T07:51:07;5.60;99.90
17956;DHT22;27666;51.498;11.966;2023-02-02T07:53:54;5.60;99.90
17956;DHT22;27666;51.498;11.966;2023-02-02T07:56:42;5.60;99.90
17956;DHT22;27666;51.498;11.966;2023-02-02T07:59:28;5.70;99.90
17956;DHT22;27666;51.498;11.966;2023-02-02T08:02:16;5.70;99.90
17956;DHT22;27666;51.498;11.966;2023-02-02T08:05:03;5.70;99.90
17956;DHT22;27666;51.498;11.966;2023-02-02T08:07:53;5.70;99.90
17956;DHT22;27666;51.498;11.966;2023-02-02T08:10:39;5.90;99.90
17956;DHT22;27666;51.498;11.966;2023-02-02T08:13:32;5.90;99.90
17956;DHT22;27666;51.498;11.966;2023-02-02T08:16:19;5.90;99.90
17956;DHT22;27666;51.498;11.966;2023-02-02T08:19:05;6.00;99.90
17956;DHT22;27666;51.498;11.966;2023-02-02T08:21:52;6.20;99.90
17956;DHT22;27666;51.498;11.966;2023-02-02T08:24:39;6.20;99.90
17956;DHT22;27666;51.498;11.966;2023-02-02T08:27:27;6.20;99.90
17956;DHT22;27666;51.498;11.966;2023-02-02T08:30:13;6.30;99.90
17956;DHT22;27666;51.498;11.966;2023-02-02T08:33:00;6.40;99.90
17956;DHT22;27666;51.498;11.966;2023-02-02T08:35:46;6.50;99.90
17956;DHT22;27666;51.498;11.966;2023-02-02T08:38:33;6.50;99.90
17956;DHT22;27666;51.498;11.966;2023-02-02T08:41:22;6.50;99.90
17956;DHT22;27666;51.498;11.966;2023-02-02T08:44:11;6.50;99.90
17956;DHT22;27666;51.498;11.966;2023-02-02T08:46:58;6.60;99.90
17956;DHT22;27666;51.498;11.966;2023-02-02T08:49:45;6.60;99.90
17956;DHT22;27666;51.498;11.966;2023-02-02T08:52:32;6.60;99.90
17956;DHT22;27666;51.498;11.966;2023-02-02T08:55:18;6.70;99.90
17956;DHT22;27666;51.498;11.966;2023-02-02T08:58:06;6.70;99.90
17956;DHT22;27666;51.498;11.966;2023-02-02T09:00:54;6.80;99.90
17956;DHT22;27666;51.498;11.966;2023-02-02T09:03:40;6.90;99.90
17956;DHT22;27666;51.498;11.966;2023-02-02T09:06:29;6.90;99.90
17956;DHT22;27666;51.498;11.966;2023-02-02T09:09:16;7.00;99.90
17956;DHT22;27666;51.498;11.966;2023-02-02T09:12:03;7.00;99.90
17956;DHT22;27666;51.498;11.966;2023-02-02T09:14:50;7.10;99.90
17956;DHT22;27666;51.498;11.966;2023-02-02T09:17:37;7.10;99.90
17956;DHT22;27666;51.498;11.966;2023-02-02T09:20:23;7.20;99.90
17956;DHT22;27666;51.498;11.966;2023-02-02T09:23:09;7.30;99.90
17956;DHT22;27666;51.498;11.966;2023-02-02T09:25:56;7.20;99.90
17956;DHT22;27666;51.498;11.966;2023-02-02T09:28:44;7.10;99.90
17956;DHT22;27666;51.498;11.966;2023-02-02T09:31:35;7.30;99.90
17956;DHT22;27666;51.498;11.966;2023-02-02T09:34:22;7.20;99.90
17956;DHT22;27666;51.498;11.966;2023-02-02T09:37:08;7.30;99.90
17956;DHT22;27666;51.498;11.966;2023-02-02T09:39:55;7.30;99.90
17956;DHT22;27666;51.498;11.966;2023-02-02T09:42:58;7.40;99.90
17956;DHT22;27666;51.498;11.966;2023-02-02T09:45:51;7.50;99.90
17956;DHT22;27666;51.498;11.966;2023-02-02T09:48:47;7.50;99.90
17956;DHT22;27666;51.498;11.966;2023-02-02T09:51:40;7.50;99.90
17956;DHT22;27666;51.498;11.966;2023-02-02T09:54:34;7.30;99.90
17956;DHT22;27666;51.498;11.966;2023-02-02T09:57:24;7.40;99.90
17956;DHT22;27666;51.498;11.966;2023-02-02T10:00:23;7.50;99.90
17956;DHT22;27666;51.498;11.966;2023-02-02T10:03:15;7.60;99.90
17956;DHT22;27666;51.498;11.966;2023-02-02T10:06:10;7.60;99.90
17956;DHT22;27666;51.498;11.966;2023-02-02T10:09:05;7.40;99.90
17956;DHT22;27666;51.498;11.966;2023-02-02T10:11:57;7.50;99.90
17956;DHT22;27666;51.498;11.966;2023-02-02T10:14:48;7.50;99.90
17956;DHT22;27666;51.498;11.966;2023-02-02T10:17:41;7.70;99.90
17956;DHT22;27666;51.498;11.966;2023-02-02T10:20:37;7.70;99.90
17956;DHT22;27666;51.498;11.966;2023-02-02T10:23:28;7.80;99.90
17956;DHT22;27666;51.498;11.966;2023-02-02T10:26:18;7.90;99.90
17956;DHT22;27666;51.498;11.966;2023-02-02T10:29:11;7.90;99.90
17956;DHT22;27666;51.498;11.966;2023-02-02T10:32:11;7.90;99.90
17956;DHT22;27666;51.498;11.966;2023-02-02T10:35:06;7.90;99.90
17956;DHT22;27666;51.498;11.966;2023-02-02T10:38:02;7.90;99.90
17956;DHT22;27666;51.498;11.966;2023-02-02T10:40:58;8.10;99.90
17956;DHT22;27666;51.498;11.966;2023-02-02T10:43:58;8.40;99.90
17956;DHT22;27666;51.498;11.966;2023-02-02T10:46:49;8.50;99.90
17956;DHT22;27666;51.498;11.966;2023-02-02T10:49:39;8.70;99.90
17956;DHT22;27666;51.498;11.966;2023-02-02T10:52:31;8.60;99.90
17956;DHT22;27666;51.498;11.966;2023-02-02T10:55:26;8.60;99.90
17956;DHT22;27666;51.498;11.966;2023-02-02T10:58:22;8.50;99.90
17956;DHT22;27666;51.498;11.966;2023-02-02T11:01:11;8.50;99.90
17956;DHT22;27666;51.498;11.966;2023-02-02T11:04:02;8.40;99.90
17956;DHT22;27666;51.498;11.966;2023-02-02T11:07:07;8.40;99.90
17956;DHT22;27666;51.498;11.966;2023-02-02T11:09:53;8.20;99.90
17956;DHT22;27666;51.498;11.966;2023-02-02T11:12:43;8.20;99.90
17956;DHT22;27666;51.498;11.966;2023-02-02T11:15:36;8.20;99.90
17956;DHT22;27666;51.498;11.966;2023-02-02T11:18:26;8.10;99.90
17956;DHT22;27666;51.498;11.966;2023-02-02T11:21:18;8.00;99.90
17956;DHT22;27666;51.498;11.966;2023-02-02T11:24:16;8.00;99.90
17956;DHT22;27666;51.498;11.966;2023-02-02T11:27:12;8.10;99.90
17956;DHT22;27666;51.498;11.966;2023-02-02T11:30:08;8.10;99.90
17956;DHT22;27666;51.498;11.966;2023-02-02T11:32:56;8.30;99.90
17956;DHT22;27666;51.498;11.966;2023-02-02T11:35:52;8.30;99.90
17956;DHT22;27666;51.498;11.966;2023-02-02T11:38:39;8.30;99.90
17956;DHT22;27666;51.498;11.966;2023-02-02T11:41:30;8.40;99.90
17956;DHT22;27666;51.498;11.966;2023-02-02T11:44:24;8.30;99.90
17956;DHT22;27666;51.498;11.966;2023-02-02T11:47:18;8.20;99.90
17956;DHT22;27666;51.498;11.966;2023-02-02T11:50:26;8.20;99.90
17956;DHT22;27666;51.498;11.966;2023-02-02T11:53:21;8.20;99.90
17956;DHT22;27666;51.498;11.966;2023-02-02T11:56:17;8.10;99.90
17956;DHT22;27666;51.498;11.966;2023-02-02T11:59:04;8.00;99.90
17956;DHT22;27666;51.498;11.966;2023-02-02T12:01:50;7.80;99.90
17956;DHT22;27666;51.498;11.966;2023-02-02T12:05:14;7.80;99.90
17956;DHT22;27666;51.498;11.966;2023-02-02T12:08:11;7.90;99.90
17956;DHT22;27666;51.498;11.966;2023-02-02T12:11:00;7.90;99.90
17956;DHT22;27666;51.498;11.966;2023-02-02T12:14:00;7.80;99.90
17956;DHT22;27666;51.498;11.966;2023-02-02T12:17:00;7.80;99.90
17956;DHT22;27666;51.498;11.966;2023-02-02T12:20:07;7.70;99.90
17956;DHT22;27666;51.498;11.966;2023-02-02T12:23:17;7.80;99.90
17956;DHT22;27666;51.498;11.966;2023-02-02T12:26:27;7.90;99.90
17956;DHT22;27666;51.498;11.966;2023-02-02T12:29:32;7.80;99.90
17956;DHT22;27666;51.498;11.966;2023-02-02T12:32:27;7.80;99.90
17956;DHT22;27666;51.498;11.966;2023-02-02T12:35:37;7.70;99.90
17956;DHT22;27666;51.498;11.966;2023-02-02T12:38:39;7.90;99.90
17956;DHT22;27666;51.498;11.966;2023-02-02T12:41:37;8.10;99.90
17956;DHT22;27666;51.498;11.966;2023-02-02T12:44:33;8.10;99.90
17956;DHT22;27666;51.498;11.966;2023-02-02T12:47:26;8.20;99.90
17956;DHT22;27666;51.498;11.966;2023-02-02T12:50:23;8.20;99.90
17956;DHT22;27666;51.498;11.966;2023-02-02T12:53:23;8.00;99.90
17956;DHT22;27666;51.498;11.966;2023-02-02T12:56:23;8.00;99.90
17956;DHT22;27666;51.498;11.966;2023-02-02T12:59:21;8.00;99.90
17956;DHT22;27666;51.498;11.966;2023-02-02T13:02:21;7.80;99.90
17956;DHT22;27666;51.498;11.966;2023-02-02T13:05:27;7.70;99.90
17956;DHT22;27666;51.498;11.966;2023-02-02T13:08:17;7.60;99.90
17956;DHT22;27666;51.498;11.966;2023-02-02T13:11:07;7.60;99.90
17956;DHT22;27666;51.498;11.966;2023-02-02T13:14:20;7.60;99.90
17956;DHT22;27666;51.498;11.966;2023-02-02T13:17:11;7.40;99.90
17956;DHT22;27666;51.498;11.966;2023-02-02T13:20:03;7.40;99.90
17956;DHT22;27666;51.498;11.966;2023-02-02T13:22:53;7.40;99.90
17956;DHT22;27666;51.498;11.966;2023-02-02T13:25:45;7.40;99.90
17956;DHT22;27666;51.498;11.966;2023-02-02T13:28:39;7.30;99.90
17956;DHT22;27666;51.498;11.966;2023-02-02T13:31:33;7.40;99.90
17956;DHT22;27666;51.498;11.966;2023-02-02T13:34:23;7.30;99.90
17956;DHT22;27666;51.498;11.966;2023-02-02T13:37:17;7.40;99.90
17956;DHT22;27666;51.498;11.966;2023-02-02T13:40:24;7.60;99.90
17956;DHT22;27666;51.498;11.966;2023-02-02T13:43:21;7.50;99.90
17956;DHT22;27666;51.498;11.966;2023-02-02T13:46:17;7.50;99.90
17956;DHT22;27666;51.498;11.966;2023-02-02T13:49:10;7.60;99.90
17956;DHT22;27666;51.498;11.966;2023-02-02T13:52:08;7.60;99.90
17956;DHT22;27666;51.498;11.966;2023-02-02T13:58:51;7.90;99.90
17956;DHT22;27666;51.498;11.966;2023-02-02T14:01:41;7.90;99.90
17956;DHT22;27666;51.498;11.966;2023-02-02T14:04:31;7.90;99.90
17956;DHT22;27666;51.498;11.966;2023-02-02T14:07:25;8.00;99.90
17956;DHT22;27666;51.498;11.966;2023-02-02T14:10:23;8.00;99.90
17956;DHT22;27666;51.498;11.966;2023-02-02T14:13:16;8.10;99.90
17956;DHT22;27666;51.498;11.966;2023-02-02T14:16:25;8.00;99.90
17956;DHT22;27666;51.498;11.966;2023-02-02T14:19:48;8.00;99.90
17956;DHT22;27666;51.498;11.966;2023-02-02T14:22:43;7.90;99.90
17956;DHT22;27666;51.498;11.966;2023-02-02T14:25:48;8.00;99.90
17956;DHT22;27666;51.498;11.966;2023-02-02T14:28:49;8.00;99.90
17956;DHT22;27666;51.498;11.966;2023-02-02T14:31:51;8.00;99.90
17956;DHT22;27666;51.498;11.966;2023-02-02T14:34:38;7.90;99.90
17956;DHT22;27666;51.498;11.966;2023-02-02T14:37:41;7.80;99.90
17956;DHT22;27666;51.498;11.966;2023-02-02T14:40:46;7.70;99.90
17956;DHT22;27666;51.498;11.966;2023-02-02T14:43:39;7.50;99.90
17956;DHT22;27666;51.498;11.966;2023-02-02T14:46:38;7.50;99.90
17956;DHT22;27666;51.498;11.966;2023-02-02T14:49:26;7.60;99.90
17956;DHT22;27666;51.498;11.966;2023-02-02T14:52:21;7.60;99.90
17956;DHT22;27666;51.498;11.966;2023-02-02T14:55:17;7.60;99.90
17956;DHT22;27666;51.498;11.966;2023-02-02T14:58:05;7.50;99.90
17956;DHT22;27666;51.498;11.966;2023-02-02T15:01:06;7.60;99.90
17956;DHT22;27666;51.498;11.966;2023-02-02T15:03:55;7.50;99.90
17956;DHT22;27666;51.498;11.966;2023-02-02T15:06:42;7.40;99.90
17956;DHT22;27666;51.498;11.966;2023-02-02T15:09:36;7.50;99.90
17956;DHT22;27666;51.498;11.966;2023-02-02T15:12:32;7.50;99.90
17956;DHT22;27666;51.498;11.966;2023-02-02T15:15:20;7.50;99.90
17956;DHT22;27666;51.498;11.966;2023-02-02T15:18:14;7.40;99.90
17956;DHT22;27666;51.498;11.966;2023-02-02T15:21:04;7.40;99.90
17956;DHT22;27666;51.498;11.966;2023-02-02T15:23:53;7.40;99.90
17956;DHT22;27666;51.498;11.966;2023-02-02T15:26:41;7.40;99.90
17956;DHT22;27666;51.498;11.966;2023-02-02T15:29:39;7.20;99.90
17956;DHT22;27666;51.498;11.966;2023-02-02T15:32:28;7.10;99.90
17956;DHT22;27666;51.498;11.966;2023-02-02T15:35:18;7.00;99.90
17956;DHT22;27666;51.498;11.966;2023-02-02T15:38:13;7.00;99.90
17956;DHT22;27666;51.498;11.966;2023-02-02T15:41:06;6.90;99.90
17956;DHT22;27666;51.498;11.966;2023-02-02T15:43:57;6.80;99.90
17956;DHT22;27666;51.498;11.966;2023-02-02T15:46:46;6.70;99.90
17956;DHT22;27666;51.498;11.966;2023-02-02T15:49:34;6.70;99.90
17956;DHT22;27666;51.498;11.966;2023-02-02T15:52:23;6.60;99.90
17956;DHT22;27666;51.498;11.966;2023-02-02T15:55:19;6.60;99.90
17956;DHT22;27666;51.498;11.966;2023-02-02T15:58:25;6.60;99.90
17956;DHT22;27666;51.498;11.966;2023-02-02T16:01:15;6.50;99.90
17956;DHT22;27666;51.498;11.966;2023-02-02T16:04:13;6.50;99.90
17956;DHT22;27666;51.498;11.966;2023-02-02T16:07:00;6.60;99.90
17956;DHT22;27666;51.498;11.966;2023-02-02T16:09:47;6.60;99.90
17956;DHT22;27666;51.498;11.966;2023-02-02T16:12:34;6.60;99.90
17956;DHT22;27666;51.498;11.966;2023-02-02T16:15:26;6.60;99.90
17956;DHT22;27666;51.498;11.966;2023-02-02T16:18:13;6.50;99.90
17956;DHT22;27666;51.498;11.966;2023-02-02T16:21:08;6.60;99.90
17956;DHT22;27666;51.498;11.966;2023-02-02T16:23:57;6.60;99.90
17956;DHT22;27666;51.498;11.966;2023-02-02T16:26:44;6.70;99.90
17956;DHT22;27666;51.498;11.966;2023-02-02T16:29:32;6.70;99.90
17956;DHT22;27666;51.498;11.966;2023-02-02T16:32:27;6.60;99.90
17956;DHT22;27666;51.498;11.966;2023-02-02T16:35:30;6.70;99.90
17956;DHT22;27666;51.498;11.966;2023-02-02T16:38:23;6.80;99.90
17956;DHT22;27666;51.498;11.966;2023-02-02T16:41:12;6.70;99.90
17956;DHT22;27666;51.498;11.966;2023-02-02T16:47:35;6.50;99.90
17956;DHT22;27666;51.498;11.966;2023-02-02T16:50:32;6.40;99.90
17956;DHT22;27666;51.498;11.966;2023-02-02T16:53:22;6.40;99.90
17956;DHT22;27666;51.498;11.966;2023-02-02T16:56:18;6.30;99.90
17956;DHT22;27666;51.498;11.966;2023-02-02T16:59:14;6.30;99.90
17956;DHT22;27666;51.498;11.966;2023-02-02T17:02:05;6.20;99.90
17956;DHT22;27666;51.498;11.966;2023-02-02T17:05:05;6.10;99.90
17956;DHT22;27666;51.498;11.966;2023-02-02T17:07:55;6.00;99.90
17956;DHT22;27666;51.498;11.966;2023-02-02T17:11:01;6.00;99.90
17956;DHT22;27666;51.498;11.966;2023-02-02T17:13:48;6.00;99.90
17956;DHT22;27666;51.498;11.966;2023-02-02T17:16:35;6.10;99.90
17956;DHT22;27666;51.498;11.966;2023-02-02T17:19:22;6.10;99.90
17956;DHT22;27666;51.498;11.966;2023-02-02T17:22:09;6.10;99.90
17956;DHT22;27666;51.498;11.966;2023-02-02T17:24:57;6.00;99.90
17956;DHT22;27666;51.498;11.966;2023-02-02T17:27:45;5.90;99.90
17956;DHT22;27666;51.498;11.966;2023-02-02T17:30:32;5.90;99.90
17956;DHT22;27666;51.498;11.966;2023-02-02T17:33:19;5.80;99.90
17956;DHT22;27666;51.498;11.966;2023-02-02T17:36:06;5.80;99.90
17956;DHT22;27666;51.498;11.966;2023-02-02T17:38:54;5.70;99.90
17956;DHT22;27666;51.498;11.966;2023-02-02T17:41:41;5.60;99.90
17956;DHT22;27666;51.498;11.966;2023-02-02T17:44:31;5.50;99.90
17956;DHT22;27666;51.498;11.966;2023-02-02T17:47:19;5.50;99.90
17956;DHT22;27666;51.498;11.966;2023-02-02T17:50:06;5.40;99.90
17956;DHT22;27666;51.498;11.966;2023-02-02T17:52:52;5.40;99.90
17956;DHT22;27666;51.498;11.966;2023-02-02T17:55:41;5.50;99.90
17956;DHT22;27666;51.498;11.966;2023-02-02T17:58:28;5.50;99.90
17956;DHT22;27666;51.498;11.966;2023-02-02T18:01:16;5.50;99.90
17956;DHT22;27666;51.498;11.966;2023-02-02T18:04:03;5.50;99.90
17956;DHT22;27666;51.498;11.966;2023-02-02T18:06:50;5.40;99.90